sensor_id;sensor_type;location;lat;lon;timestamp;P1;durP1;ratioP1;P2;durP2;ratioP2
32108;SDS011;18624;50.042;8.436;2022-10-16T00:00:52;2.30;;;2.10;;
32108;SDS011;18624;50.042;8.436;2022-10-16T00:03:19;3.17;;;2.88;;
32108;SDS011;18624;50.042;8.436;2022-10-16T00:05:45;2.45;;;2.25;;
32108;SDS011;18624;50.042;8.436;2022-10-16T00:08:13;2.40;;;2.20;;
32108;SDS011;18624;50.042;8.436;2022-10-16T00:10:40;2.50;;;2.10;;
32108;SDS011;18624;50.042;8.436;2022-10-16T00:13:10;2.75;;;1.83;;
32108;SDS011;18624;50.042;8.436;2022-10-16T00:15:36;2.20;;;1.77;;
32108;SDS011;18624;50.042;8.436;2022-10-16T00:18:04;2.00;;;1.70;;
32108;SDS011;18624;50.042;8.436;2022-10-16T00:20:33;2.50;;;2.30;;
32108;SDS011;18624;50.042;8.436;2022-10-16T00:23:00;2.42;;;1.85;;
32108;SDS011;18624;50.042;8.436;2022-10-16T00:25:27;2.13;;;1.90;;
32108;SDS011;18624;50.042;8.436;2022-10-16T00:27:54;2.03;;;1.80;;
32108;SDS011;18624;50.042;8.436;2022-10-16T00:30:21;1.80;;;1.70;;
32108;SDS011;18624;50.042;8.436;2022-10-16T00:32:48;1.98;;;1.70;;
32108;SDS011;18624;50.042;8.436;2022-10-16T00:35:14;2.20;;;2.00;;
32108;SDS011;18624;50.042;8.436;2022-10-16T00:37:40;1.63;;;1.52;;
32108;SDS011;18624;50.042;8.436;2022-10-16T00:40:07;2.05;;;1.85;;
32108;SDS011;18624;50.042;8.436;2022-10-16T00:42:35;2.30;;;2.10;;
32108;SDS011;18624;50.042;8.436;2022-10-16T00:45:02;3.70;;;2.85;;
32108;SDS011;18624;50.042;8.436;2022-10-16T00:47:30;3.03;;;2.75;;
32108;SDS011;18624;50.042;8.436;2022-10-16T00:50:10;3.40;;;3.10;;
32108;SDS011;18624;50.042;8.436;2022-10-16T00:52:43;2.60;;;2.40;;
32108;SDS011;18624;50.042;8.436;2022-10-16T00:55:12;3.55;;;3.25;;
32108;SDS011;18624;50.042;8.436;2022-10-16T00:57:39;3.35;;;2.40;;
32108;SDS011;18624;50.042;8.436;2022-10-16T01:00:08;3.92;;;2.70;;
32108;SDS011;18624;50.042;8.436;2022-10-16T01:02:36;3.15;;;2.83;;
32108;SDS011;18624;50.042;8.436;2022-10-16T01:05:02;2.83;;;2.58;;
32108;SDS011;18624;50.042;8.436;2022-10-16T01:10:23;3.17;;;2.97;;
32108;SDS011;18624;50.042;8.436;2022-10-16T01:15:47;3.03;;;2.83;;
32108;SDS011;18624;50.042;8.436;2022-10-16T01:20:57;3.00;;;2.80;;
32108;SDS011;18624;50.042;8.436;2022-10-16T01:23:37;3.20;;;2.90;;
32108;SDS011;18624;50.042;8.436;2022-10-16T01:26:13;8.50;;;4.35;;
32108;SDS011;18624;50.042;8.436;2022-10-16T01:28:55;3.47;;;2.95;;
32108;SDS011;18624;50.042;8.436;2022-10-16T01:31:32;3.40;;;3.10;;
32108;SDS011;18624;50.042;8.436;2022-10-16T01:34:03;3.15;;;2.85;;
32108;SDS011;18624;50.042;8.436;2022-10-16T01:36:37;3.20;;;2.72;;
32108;SDS011;18624;50.042;8.436;2022-10-16T01:39:08;2.83;;;2.53;;
32108;SDS011;18624;50.042;8.436;2022-10-16T01:41:42;3.40;;;3.10;;
32108;SDS011;18624;50.042;8.436;2022-10-16T01:44:22;3.88;;;3.00;;
32108;SDS011;18624;50.042;8.436;2022-10-16T01:46:52;3.05;;;2.85;;
32108;SDS011;18624;50.042;8.436;2022-10-16T01:49:21;4.53;;;3.35;;
32108;SDS011;18624;50.042;8.436;2022-10-16T01:51:52;4.50;;;4.10;;
32108;SDS011;18624;50.042;8.436;2022-10-16T01:54:22;3.10;;;2.90;;
32108;SDS011;18624;50.042;8.436;2022-10-16T01:56:52;3.03;;;2.83;;
32108;SDS011;18624;50.042;8.436;2022-10-16T01:59:21;3.10;;;2.80;;
32108;SDS011;18624;50.042;8.436;2022-10-16T02:01:52;3.47;;;3.22;;
32108;SDS011;18624;50.042;8.436;2022-10-16T02:04:29;4.07;;;3.13;;
32108;SDS011;18624;50.042;8.436;2022-10-16T02:06:56;3.92;;;3.03;;
32108;SDS011;18624;50.042;8.436;2022-10-16T02:09:23;4.20;;;3.00;;
32108;SDS011;18624;50.042;8.436;2022-10-16T02:11:50;3.10;;;2.90;;
32108;SDS011;18624;50.042;8.436;2022-10-16T02:14:20;3.72;;;3.30;;
32108;SDS011;18624;50.042;8.436;2022-10-16T02:16:48;3.10;;;2.85;;
32108;SDS011;18624;50.042;8.436;2022-10-16T02:19:15;3.72;;;3.42;;
32108;SDS011;18624;50.042;8.436;2022-10-16T02:24:24;3.13;;;2.88;;
32108;SDS011;18624;50.042;8.436;2022-10-16T02:29:29;2.90;;;2.70;;
32108;SDS011;18624;50.042;8.436;2022-10-16T02:31:58;3.60;;;3.30;;
32108;SDS011;18624;50.042;8.436;2022-10-16T02:34:29;3.13;;;2.90;;
32108;SDS011;18624;50.042;8.436;2022-10-16T02:36:59;3.17;;;2.88;;
32108;SDS011;18624;50.042;8.436;2022-10-16T02:39:28;3.55;;;3.25;;
32108;SDS011;18624;50.042;8.436;2022-10-16T02:41:55;3.17;;;2.72;;
32108;SDS011;18624;50.042;8.436;2022-10-16T02:44:21;3.28;;;3.00;;
32108;SDS011;18624;50.042;8.436;2022-10-16T02:46:48;3.10;;;2.85;;
32108;SDS011;18624;50.042;8.436;2022-10-16T02:49:14;4.18;;;3.58;;
32108;SDS011;18624;50.042;8.436;2022-10-16T02:51:41;3.70;;;3.30;;
32108;SDS011;18624;50.042;8.436;2022-10-16T02:54:07;3.05;;;2.75;;
32108;SDS011;18624;50.042;8.436;2022-10-16T02:56:34;2.67;;;2.47;;
32108;SDS011;18624;50.042;8.436;2022-10-16T02:59:00;3.13;;;2.83;;
32108;SDS011;18624;50.042;8.436;2022-10-16T03:01:27;4.45;;;3.15;;
32108;SDS011;18624;50.042;8.436;2022-10-16T03:03:53;3.60;;;3.30;;
32108;SDS011;18624;50.042;8.436;2022-10-16T03:06:20;3.30;;;2.42;;
32108;SDS011;18624;50.042;8.436;2022-10-16T03:08:46;2.67;;;2.47;;
32108;SDS011;18624;50.042;8.436;2022-10-16T03:11:13;2.80;;;2.60;;
32108;SDS011;18624;50.042;8.436;2022-10-16T03:13:39;2.75;;;2.55;;
32108;SDS011;18624;50.042;8.436;2022-10-16T03:16:05;2.78;;;2.58;;
32108;SDS011;18624;50.042;8.436;2022-10-16T03:18:32;3.20;;;3.00;;
32108;SDS011;18624;50.042;8.436;2022-10-16T03:20:58;2.85;;;2.60;;
32108;SDS011;18624;50.042;8.436;2022-10-16T03:23:25;2.50;;;2.30;;
32108;SDS011;18624;50.042;8.436;2022-10-16T03:25:51;3.17;;;2.97;;
32108;SDS011;18624;50.042;8.436;2022-10-16T03:28:18;3.15;;;2.90;;
32108;SDS011;18624;50.042;8.436;2022-10-16T03:30:44;4.38;;;3.25;;
32108;SDS011;18624;50.042;8.436;2022-10-16T03:33:11;3.45;;;2.53;;
32108;SDS011;18624;50.042;8.436;2022-10-16T03:35:38;2.58;;;2.30;;
32108;SDS011;18624;50.042;8.436;2022-10-16T03:38:04;5.35;;;2.58;;
32108;SDS011;18624;50.042;8.436;2022-10-16T03:40:31;3.20;;;2.90;;
32108;SDS011;18624;50.042;8.436;2022-10-16T03:42:58;2.50;;;2.30;;
32108;SDS011;18624;50.042;8.436;2022-10-16T03:45:26;2.42;;;2.22;;
32108;SDS011;18624;50.042;8.436;2022-10-16T03:47:53;2.50;;;2.30;;
32108;SDS011;18624;50.042;8.436;2022-10-16T03:50:20;2.80;;;2.60;;
32108;SDS011;18624;50.042;8.436;2022-10-16T03:52:46;2.88;;;2.67;;
32108;SDS011;18624;50.042;8.436;2022-10-16T03:55:12;2.53;;;2.30;;
32108;SDS011;18624;50.042;8.436;2022-10-16T03:57:39;3.35;;;2.35;;
32108;SDS011;18624;50.042;8.436;2022-10-16T04:00:05;2.63;;;2.28;;
32108;SDS011;18624;50.042;8.436;2022-10-16T04:02:37;2.60;;;2.40;;
32108;SDS011;18624;50.042;8.436;2022-10-16T04:05:03;2.15;;;1.77;;
32108;SDS011;18624;50.042;8.436;2022-10-16T04:07:30;2.28;;;2.08;;
32108;SDS011;18624;50.042;8.436;2022-10-16T04:09:56;4.03;;;3.00;;
32108;SDS011;18624;50.042;8.436;2022-10-16T04:12:27;2.25;;;2.05;;
32108;SDS011;18624;50.042;8.436;2022-10-16T04:14:54;3.40;;;3.10;;
32108;SDS011;18624;50.042;8.436;2022-10-16T04:17:20;2.42;;;2.20;;
32108;SDS011;18624;50.042;8.436;2022-10-16T04:23:13;4.88;;;4.45;;
32108;SDS011;18624;50.042;8.436;2022-10-16T04:25:39;3.08;;;2.75;;
32108;SDS011;18624;50.042;8.436;2022-10-16T04:28:05;3.42;;;3.13;;
32108;SDS011;18624;50.042;8.436;2022-10-16T04:30:32;2.47;;;2.28;;
32108;SDS011;18624;50.042;8.436;2022-10-16T04:32:59;3.70;;;2.45;;
32108;SDS011;18624;50.042;8.436;2022-10-16T04:35:31;3.38;;;2.45;;
32108;SDS011;18624;50.042;8.436;2022-10-16T04:37:57;2.35;;;2.15;;
32108;SDS011;18624;50.042;8.436;2022-10-16T04:40:24;2.13;;;1.92;;
32108;SDS011;18624;50.042;8.436;2022-10-16T04:42:51;3.47;;;2.17;;
32108;SDS011;18624;50.042;8.436;2022-10-16T04:45:17;1.90;;;1.80;;
32108;SDS011;18624;50.042;8.436;2022-10-16T04:47:44;2.08;;;1.98;;
32108;SDS011;18624;50.042;8.436;2022-10-16T04:50:10;3.33;;;2.00;;
32108;SDS011;18624;50.042;8.436;2022-10-16T04:52:36;1.92;;;1.83;;
32108;SDS011;18624;50.042;8.436;2022-10-16T04:55:03;3.20;;;2.00;;
32108;SDS011;18624;50.042;8.436;2022-10-16T04:57:30;2.20;;;1.77;;
32108;SDS011;18624;50.042;8.436;2022-10-16T04:59:56;1.98;;;1.88;;
32108;SDS011;18624;50.042;8.436;2022-10-16T05:02:23;2.00;;;1.90;;
32108;SDS011;18624;50.042;8.436;2022-10-16T05:04:49;2.13;;;1.95;;
32108;SDS011;18624;50.042;8.436;2022-10-16T05:07:16;2.53;;;2.33;;
32108;SDS011;18624;50.042;8.436;2022-10-16T05:09:42;2.13;;;2.00;;
32108;SDS011;18624;50.042;8.436;2022-10-16T05:12:09;2.22;;;2.13;;
32108;SDS011;18624;50.042;8.436;2022-10-16T05:14:36;2.50;;;2.30;;
32108;SDS011;18624;50.042;8.436;2022-10-16T05:17:02;2.22;;;2.03;;
32108;SDS011;18624;50.042;8.436;2022-10-16T05:19:29;3.03;;;2.25;;
32108;SDS011;18624;50.042;8.436;2022-10-16T05:21:55;2.10;;;2.00;;
32108;SDS011;18624;50.042;8.436;2022-10-16T05:24:22;1.92;;;1.83;;
32108;SDS011;18624;50.042;8.436;2022-10-16T05:26:49;4.40;;;3.50;;
32108;SDS011;18624;50.042;8.436;2022-10-16T05:29:15;2.30;;;2.10;;
32108;SDS011;18624;50.042;8.436;2022-10-16T05:31:42;3.45;;;2.83;;
32108;SDS011;18624;50.042;8.436;2022-10-16T05:34:08;2.90;;;2.70;;
32108;SDS011;18624;50.042;8.436;2022-10-16T05:36:35;3.10;;;2.80;;
32108;SDS011;18624;50.042;8.436;2022-10-16T05:39:02;3.30;;;3.00;;
32108;SDS011;18624;50.042;8.436;2022-10-16T05:41:29;3.10;;;2.80;;
32108;SDS011;18624;50.042;8.436;2022-10-16T05:43:55;2.35;;;2.15;;
32108;SDS011;18624;50.042;8.436;2022-10-16T05:46:21;2.47;;;2.28;;
32108;SDS011;18624;50.042;8.436;2022-10-16T05:48:48;2.95;;;2.75;;
32108;SDS011;18624;50.042;8.436;2022-10-16T05:51:17;2.50;;;2.30;;
32108;SDS011;18624;50.042;8.436;2022-10-16T05:53:43;2.60;;;2.40;;
32108;SDS011;18624;50.042;8.436;2022-10-16T05:56:15;2.67;;;2.47;;
32108;SDS011;18624;50.042;8.436;2022-10-16T05:58:41;2.65;;;2.45;;
32108;SDS011;18624;50.042;8.436;2022-10-16T06:01:14;1.98;;;1.85;;
32108;SDS011;18624;50.042;8.436;2022-10-16T06:03:42;3.37;;;3.00;;
32108;SDS011;18624;50.042;8.436;2022-10-16T06:06:09;3.38;;;2.88;;
32108;SDS011;18624;50.042;8.436;2022-10-16T06:08:43;2.80;;;2.60;;
32108;SDS011;18624;50.042;8.436;2022-10-16T06:11:12;2.53;;;2.33;;
32108;SDS011;18624;50.042;8.436;2022-10-16T06:13:41;2.40;;;2.22;;
32108;SDS011;18624;50.042;8.436;2022-10-16T06:16:09;2.47;;;2.25;;
32108;SDS011;18624;50.042;8.436;2022-10-16T06:18:36;2.65;;;2.45;;
32108;SDS011;18624;50.042;8.436;2022-10-16T06:21:14;2.88;;;2.53;;
32108;SDS011;18624;50.042;8.436;2022-10-16T06:23:43;3.33;;;3.03;;
32108;SDS011;18624;50.042;8.436;2022-10-16T06:26:18;2.58;;;2.22;;
32108;SDS011;18624;50.042;8.436;2022-10-16T06:28:46;2.38;;;2.17;;
32108;SDS011;18624;50.042;8.436;2022-10-16T06:31:14;2.50;;;2.30;;
32108;SDS011;18624;50.042;8.436;2022-10-16T06:33:41;2.70;;;2.30;;
32108;SDS011;18624;50.042;8.436;2022-10-16T06:36:12;3.20;;;2.90;;
32108;SDS011;18624;50.042;8.436;2022-10-16T06:38:40;3.22;;;2.63;;
32108;SDS011;18624;50.042;8.436;2022-10-16T06:41:09;2.60;;;2.40;;
32108;SDS011;18624;50.042;8.436;2022-10-16T06:43:37;2.53;;;2.22;;
32108;SDS011;18624;50.042;8.436;2022-10-16T06:46:05;3.15;;;2.85;;
32108;SDS011;18624;50.042;8.436;2022-10-16T06:48:34;2.83;;;2.17;;
32108;SDS011;18624;50.042;8.436;2022-10-16T06:51:14;3.17;;;2.90;;
32108;SDS011;18624;50.042;8.436;2022-10-16T06:53:43;2.92;;;2.40;;
32108;SDS011;18624;50.042;8.436;2022-10-16T06:56:29;2.40;;;2.20;;
32108;SDS011;18624;50.042;8.436;2022-10-16T06:58:57;2.28;;;2.08;;
32108;SDS011;18624;50.042;8.436;2022-10-16T07:01:24;2.75;;;2.55;;
32108;SDS011;18624;50.042;8.436;2022-10-16T07:03:51;3.53;;;2.35;;
32108;SDS011;18624;50.042;8.436;2022-10-16T07:06:18;2.97;;;2.70;;
32108;SDS011;18624;50.042;8.436;2022-10-16T07:08:47;2.80;;;2.60;;
32108;SDS011;18624;50.042;8.436;2022-10-16T07:11:19;2.50;;;2.30;;
32108;SDS011;18624;50.042;8.436;2022-10-16T07:13:47;3.25;;;2.92;;
32108;SDS011;18624;50.042;8.436;2022-10-16T07:16:22;2.85;;;2.65;;
32108;SDS011;18624;50.042;8.436;2022-10-16T07:18:51;3.65;;;3.22;;
32108;SDS011;18624;50.042;8.436;2022-10-16T07:21:21;2.50;;;2.30;;
32108;SDS011;18624;50.042;8.436;2022-10-16T07:23:52;3.10;;;2.38;;
32108;SDS011;18624;50.042;8.436;2022-10-16T07:26:20;2.58;;;2.38;;
32108;SDS011;18624;50.042;8.436;2022-10-16T07:28:46;3.25;;;2.83;;
32108;SDS011;18624;50.042;8.436;2022-10-16T07:31:14;2.28;;;2.10;;
32108;SDS011;18624;50.042;8.436;2022-10-16T07:33:42;2.45;;;2.25;;
32108;SDS011;18624;50.042;8.436;2022-10-16T07:36:11;2.50;;;2.22;;
32108;SDS011;18624;50.042;8.436;2022-10-16T07:38:41;2.42;;;2.20;;
32108;SDS011;18624;50.042;8.436;2022-10-16T07:41:09;2.30;;;2.10;;
32108;SDS011;18624;50.042;8.436;2022-10-16T07:43:38;2.10;;;2.00;;
32108;SDS011;18624;50.042;8.436;2022-10-16T07:46:04;2.40;;;2.20;;
32108;SDS011;18624;50.042;8.436;2022-10-16T07:48:32;2.08;;;1.88;;
32108;SDS011;18624;50.042;8.436;2022-10-16T07:51:01;3.65;;;2.63;;
32108;SDS011;18624;50.042;8.436;2022-10-16T07:53:29;2.30;;;2.10;;
32108;SDS011;18624;50.042;8.436;2022-10-16T07:56:15;2.65;;;2.45;;
32108;SDS011;18624;50.042;8.436;2022-10-16T07:58:42;2.72;;;2.53;;
32108;SDS011;18624;50.042;8.436;2022-10-16T08:01:10;1.75;;;1.65;;
32108;SDS011;18624;50.042;8.436;2022-10-16T08:03:43;4.80;;;2.90;;
32108;SDS011;18624;50.042;8.436;2022-10-16T08:06:10;2.40;;;2.17;;
32108;SDS011;18624;50.042;8.436;2022-10-16T08:08:37;2.63;;;2.13;;
32108;SDS011;18624;50.042;8.436;2022-10-16T08:11:03;2.58;;;2.35;;
32108;SDS011;18624;50.042;8.436;2022-10-16T08:13:30;2.30;;;1.77;;
32108;SDS011;18624;50.042;8.436;2022-10-16T08:15:57;2.30;;;2.10;;
32108;SDS011;18624;50.042;8.436;2022-10-16T08:18:24;2.58;;;2.38;;
32108;SDS011;18624;50.042;8.436;2022-10-16T08:20:56;3.22;;;2.97;;
32108;SDS011;18624;50.042;8.436;2022-10-16T08:23:24;3.17;;;2.88;;
32108;SDS011;18624;50.042;8.436;2022-10-16T08:25:52;2.60;;;2.40;;
32108;SDS011;18624;50.042;8.436;2022-10-16T08:28:19;2.53;;;2.33;;
32108;SDS011;18624;50.042;8.436;2022-10-16T08:30:46;3.53;;;3.22;;
32108;SDS011;18624;50.042;8.436;2022-10-16T08:33:13;2.85;;;2.50;;
32108;SDS011;18624;50.042;8.436;2022-10-16T08:35:39;2.95;;;2.70;;
32108;SDS011;18624;50.042;8.436;2022-10-16T08:38:06;3.00;;;2.70;;
32108;SDS011;18624;50.042;8.436;2022-10-16T08:40:33;2.55;;;2.13;;
32108;SDS011;18624;50.042;8.436;2022-10-16T08:43:10;3.25;;;2.78;;
32108;SDS011;18624;50.042;8.436;2022-10-16T08:50:50;2.40;;;2.20;;
32108;SDS011;18624;50.042;8.436;2022-10-16T08:53:23;1.98;;;1.88;;
32108;SDS011;18624;50.042;8.436;2022-10-16T08:55:54;6.57;;;4.63;;
32108;SDS011;18624;50.042;8.436;2022-10-16T08:58:22;4.35;;;3.67;;
32108;SDS011;18624;50.042;8.436;2022-10-16T09:01:00;5.15;;;4.10;;
32108;SDS011;18624;50.042;8.436;2022-10-16T09:03:32;3.97;;;3.05;;
32108;SDS011;18624;50.042;8.436;2022-10-16T09:06:25;3.30;;;2.80;;
32108;SDS011;18624;50.042;8.436;2022-10-16T09:11:47;2.88;;;2.67;;
32108;SDS011;18624;50.042;8.436;2022-10-16T09:14:31;2.25;;;2.05;;
32108;SDS011;18624;50.042;8.436;2022-10-16T09:17:16;1.80;;;1.70;;
32108;SDS011;18624;50.042;8.436;2022-10-16T09:20:13;2.50;;;2.03;;
32108;SDS011;18624;50.042;8.436;2022-10-16T09:23:08;4.57;;;3.03;;
32108;SDS011;18624;50.042;8.436;2022-10-16T09:25:43;2.90;;;2.60;;
32108;SDS011;18624;50.042;8.436;2022-10-16T09:28:11;2.72;;;2.05;;
32108;SDS011;18624;50.042;8.436;2022-10-16T09:30:37;3.63;;;2.60;;
32108;SDS011;18624;50.042;8.436;2022-10-16T09:33:05;4.57;;;2.92;;
32108;SDS011;18624;50.042;8.436;2022-10-16T09:35:41;3.30;;;2.60;;
32108;SDS011;18624;50.042;8.436;2022-10-16T09:38:25;4.07;;;2.95;;
32108;SDS011;18624;50.042;8.436;2022-10-16T09:43:49;4.07;;;3.05;;
32108;SDS011;18624;50.042;8.436;2022-10-16T09:46:30;5.10;;;2.83;;
32108;SDS011;18624;50.042;8.436;2022-10-16T09:49:02;4.03;;;3.30;;
32108;SDS011;18624;50.042;8.436;2022-10-16T09:51:34;4.65;;;3.28;;
32108;SDS011;18624;50.042;8.436;2022-10-16T09:54:12;7.10;;;3.78;;
32108;SDS011;18624;50.042;8.436;2022-10-16T09:56:41;3.30;;;3.00;;
32108;SDS011;18624;50.042;8.436;2022-10-16T09:59:12;3.65;;;3.35;;
32108;SDS011;18624;50.042;8.436;2022-10-16T10:01:50;5.50;;;3.50;;
32108;SDS011;18624;50.042;8.436;2022-10-16T10:04:18;5.57;;;5.03;;
32108;SDS011;18624;50.042;8.436;2022-10-16T10:11:44;3.75;;;3.35;;
32108;SDS011;18624;50.042;8.436;2022-10-16T10:16:44;5.80;;;4.00;;
32108;SDS011;18624;50.042;8.436;2022-10-16T10:19:14;5.07;;;4.30;;
32108;SDS011;18624;50.042;8.436;2022-10-16T10:21:45;4.95;;;3.60;;
32108;SDS011;18624;50.042;8.436;2022-10-16T10:24:13;4.00;;;3.63;;
32108;SDS011;18624;50.042;8.436;2022-10-16T10:26:58;4.57;;;3.70;;
32108;SDS011;18624;50.042;8.436;2022-10-16T10:29:56;6.35;;;3.67;;
32108;SDS011;18624;50.042;8.436;2022-10-16T10:32:41;4.40;;;4.00;;
32108;SDS011;18624;50.042;8.436;2022-10-16T10:36:04;4.35;;;3.63;;
32108;SDS011;18624;50.042;8.436;2022-10-16T10:38:42;5.43;;;4.88;;
32108;SDS011;18624;50.042;8.436;2022-10-16T10:42:12;5.95;;;4.70;;
32108;SDS011;18624;50.042;8.436;2022-10-16T10:44:13;4.20;;;3.63;;
32108;SDS011;18624;50.042;8.436;2022-10-16T10:49:34;4.68;;;3.78;;
32108;SDS011;18624;50.042;8.436;2022-10-16T10:55:51;3.65;;;3.13;;
32108;SDS011;18624;50.042;8.436;2022-10-16T10:58:21;6.57;;;4.70;;
32108;SDS011;18624;50.042;8.436;2022-10-16T11:00:58;2.85;;;2.55;;
32108;SDS011;18624;50.042;8.436;2022-10-16T11:03:50;3.88;;;3.58;;
32108;SDS011;18624;50.042;8.436;2022-10-16T11:06:37;4.50;;;4.05;;
32108;SDS011;18624;50.042;8.436;2022-10-16T11:09:20;4.32;;;4.03;;
32108;SDS011;18624;50.042;8.436;2022-10-16T11:14:34;2.97;;;2.65;;
32108;SDS011;18624;50.042;8.436;2022-10-16T11:17:11;3.58;;;3.28;;
32108;SDS011;18624;50.042;8.436;2022-10-16T11:19:49;2.83;;;2.63;;
32108;SDS011;18624;50.042;8.436;2022-10-16T11:25:00;3.83;;;2.55;;
32108;SDS011;18624;50.042;8.436;2022-10-16T11:27:42;3.17;;;2.88;;
32108;SDS011;18624;50.042;8.436;2022-10-16T11:30:28;3.65;;;3.33;;
32108;SDS011;18624;50.042;8.436;2022-10-16T11:35:53;3.33;;;3.08;;
32108;SDS011;18624;50.042;8.436;2022-10-16T11:38:29;4.75;;;3.60;;
32108;SDS011;18624;50.042;8.436;2022-10-16T11:41:03;3.60;;;3.30;;
32108;SDS011;18624;50.042;8.436;2022-10-16T11:43:42;4.22;;;3.65;;
32108;SDS011;18624;50.042;8.436;2022-10-16T11:46:17;3.78;;;3.40;;
32108;SDS011;18624;50.042;8.436;2022-10-16T11:54:35;3.13;;;2.92;;
32108;SDS011;18624;50.042;8.436;2022-10-16T11:57:17;2.97;;;2.70;;
32108;SDS011;18624;50.042;8.436;2022-10-16T12:00:08;3.17;;;2.97;;
32108;SDS011;18624;50.042;8.436;2022-10-16T12:08:16;2.33;;;2.13;;
32108;SDS011;18624;50.042;8.436;2022-10-16T12:10:44;2.42;;;2.22;;
32108;SDS011;18624;50.042;8.436;2022-10-16T12:18:38;2.30;;;2.10;;
32108;SDS011;18624;50.042;8.436;2022-10-16T12:21:09;3.85;;;2.75;;
32108;SDS011;18624;50.042;8.436;2022-10-16T12:26:29;3.00;;;2.60;;
32108;SDS011;18624;50.042;8.436;2022-10-16T12:32:21;2.45;;;1.70;;
32108;SDS011;18624;50.042;8.436;2022-10-16T12:35:22;1.90;;;1.80;;
32108;SDS011;18624;50.042;8.436;2022-10-16T12:37:52;3.00;;;2.17;;
32108;SDS011;18624;50.042;8.436;2022-10-16T12:42:52;1.98;;;1.88;;
32108;SDS011;18624;50.042;8.436;2022-10-16T12:45:29;1.63;;;1.52;;
32108;SDS011;18624;50.042;8.436;2022-10-16T12:47:58;2.00;;;1.90;;
32108;SDS011;18624;50.042;8.436;2022-10-16T12:52:59;2.45;;;1.73;;
32108;SDS011;18624;50.042;8.436;2022-10-16T12:55:27;1.80;;;1.70;;
32108;SDS011;18624;50.042;8.436;2022-10-16T12:58:09;1.55;;;1.45;;
32108;SDS011;18624;50.042;8.436;2022-10-16T13:00:57;2.20;;;2.00;;
32108;SDS011;18624;50.042;8.436;2022-10-16T13:03:54;1.88;;;1.60;;
32108;SDS011;18624;50.042;8.436;2022-10-16T13:06:53;2.22;;;1.98;;
32108;SDS011;18624;50.042;8.436;2022-10-16T13:17:33;2.85;;;2.60;;
32108;SDS011;18624;50.042;8.436;2022-10-16T13:23:17;1.98;;;1.77;;
32108;SDS011;18624;50.042;8.436;2022-10-16T13:25:58;2.05;;;1.88;;
32108;SDS011;18624;50.042;8.436;2022-10-16T13:28:35;1.92;;;1.83;;
32108;SDS011;18624;50.042;8.436;2022-10-16T13:31:04;2.05;;;1.85;;
32108;SDS011;18624;50.042;8.436;2022-10-16T13:36:03;1.85;;;1.73;;
32108;SDS011;18624;50.042;8.436;2022-10-16T13:38:31;1.77;;;1.67;;
32108;SDS011;18624;50.042;8.436;2022-10-16T13:41:04;1.92;;;1.83;;
32108;SDS011;18624;50.042;8.436;2022-10-16T13:43:33;2.10;;;1.90;;
32108;SDS011;18624;50.042;8.436;2022-10-16T13:46:04;2.85;;;1.70;;
32108;SDS011;18624;50.042;8.436;2022-10-16T13:48:33;2.38;;;2.28;;
32108;SDS011;18624;50.042;8.436;2022-10-16T13:51:05;1.90;;;1.65;;
32108;SDS011;18624;50.042;8.436;2022-10-16T13:53:38;2.03;;;1.92;;
32108;SDS011;18624;50.042;8.436;2022-10-16T13:56:05;1.60;;;1.50;;
32108;SDS011;18624;50.042;8.436;2022-10-16T13:58:35;2.00;;;1.90;;
32108;SDS011;18624;50.042;8.436;2022-10-16T14:01:05;2.13;;;1.95;;
32108;SDS011;18624;50.042;8.436;2022-10-16T14:03:42;2.58;;;2.38;;
32108;SDS011;18624;50.042;8.436;2022-10-16T14:06:14;2.58;;;2.38;;
32108;SDS011;18624;50.042;8.436;2022-10-16T14:08:45;1.88;;;1.77;;
32108;SDS011;18624;50.042;8.436;2022-10-16T14:11:25;1.70;;;1.60;;
32108;SDS011;18624;50.042;8.436;2022-10-16T14:13:52;2.13;;;2.00;;
32108;SDS011;18624;50.042;8.436;2022-10-16T14:16:23;2.00;;;1.90;;
32108;SDS011;18624;50.042;8.436;2022-10-16T14:18:59;1.77;;;1.67;;
32108;SDS011;18624;50.042;8.436;2022-10-16T14:21:28;2.58;;;2.35;;
32108;SDS011;18624;50.042;8.436;2022-10-16T14:23:55;1.90;;;1.80;;
32108;SDS011;18624;50.042;8.436;2022-10-16T14:26:23;2.28;;;2.08;;
32108;SDS011;18624;50.042;8.436;2022-10-16T14:29:10;2.40;;;2.30;;
32108;SDS011;18624;50.042;8.436;2022-10-16T14:31:39;2.50;;;2.22;;
32108;SDS011;18624;50.042;8.436;2022-10-16T14:34:23;3.58;;;2.35;;
32108;SDS011;18624;50.042;8.436;2022-10-16T14:36:56;2.30;;;2.10;;
32108;SDS011;18624;50.042;8.436;2022-10-16T14:39:25;1.90;;;1.80;;
32108;SDS011;18624;50.042;8.436;2022-10-16T14:41:54;2.10;;;1.90;;
32108;SDS011;18624;50.042;8.436;2022-10-16T14:44:25;2.55;;;2.00;;
32108;SDS011;18624;50.042;8.436;2022-10-16T14:46:55;3.20;;;2.22;;
32108;SDS011;18624;50.042;8.436;2022-10-16T14:49:22;2.03;;;1.92;;
32108;SDS011;18624;50.042;8.436;2022-10-16T14:51:50;1.70;;;1.60;;
32108;SDS011;18624;50.042;8.436;2022-10-16T14:54:17;2.72;;;2.22;;
32108;SDS011;18624;50.042;8.436;2022-10-16T14:56:46;3.90;;;2.40;;
32108;SDS011;18624;50.042;8.436;2022-10-16T14:59:19;1.83;;;1.70;;
32108;SDS011;18624;50.042;8.436;2022-10-16T15:01:51;2.53;;;2.33;;
32108;SDS011;18624;50.042;8.436;2022-10-16T15:04:18;3.42;;;2.40;;
32108;SDS011;18624;50.042;8.436;2022-10-16T15:06:44;2.47;;;2.28;;
32108;SDS011;18624;50.042;8.436;2022-10-16T15:09:11;2.70;;;2.50;;
32108;SDS011;18624;50.042;8.436;2022-10-16T15:11:38;4.18;;;2.40;;
32108;SDS011;18624;50.042;8.436;2022-10-16T15:14:05;2.60;;;2.40;;
32108;SDS011;18624;50.042;8.436;2022-10-16T15:16:31;2.33;;;2.13;;
32108;SDS011;18624;50.042;8.436;2022-10-16T15:18:58;2.28;;;2.00;;
32108;SDS011;18624;50.042;8.436;2022-10-16T15:21:26;3.05;;;2.33;;
32108;SDS011;18624;50.042;8.436;2022-10-16T15:23:54;2.72;;;2.53;;
32108;SDS011;18624;50.042;8.436;2022-10-16T15:26:23;208.18;;;163.95;;
32108;SDS011;18624;50.042;8.436;2022-10-16T15:28:51;267.60;;;192.07;;
32108;SDS011;18624;50.042;8.436;2022-10-16T15:31:18;61.80;;;46.88;;
32108;SDS011;18624;50.042;8.436;2022-10-16T15:33:45;17.88;;;15.13;;
32108;SDS011;18624;50.042;8.436;2022-10-16T15:36:17;7.70;;;6.78;;
32108;SDS011;18624;50.042;8.436;2022-10-16T15:38:43;16.30;;;13.20;;
32108;SDS011;18624;50.042;8.436;2022-10-16T15:41:11;21.73;;;17.73;;
32108;SDS011;18624;50.042;8.436;2022-10-16T15:43:37;15.68;;;13.35;;
32108;SDS011;18624;50.042;8.436;2022-10-16T15:46:05;21.88;;;17.45;;
32108;SDS011;18624;50.042;8.436;2022-10-16T15:48:35;23.48;;;16.08;;
32108;SDS011;18624;50.042;8.436;2022-10-16T15:51:05;15.30;;;10.63;;
32108;SDS011;18624;50.042;8.436;2022-10-16T15:53:33;17.35;;;14.02;;
32108;SDS011;18624;50.042;8.436;2022-10-16T15:56:01;11.40;;;9.15;;
32108;SDS011;18624;50.042;8.436;2022-10-16T15:58:28;8.20;;;6.30;;
32108;SDS011;18624;50.042;8.436;2022-10-16T16:00:56;6.82;;;6.10;;
32108;SDS011;18624;50.042;8.436;2022-10-16T16:03:24;7.10;;;5.07;;
32108;SDS011;18624;50.042;8.436;2022-10-16T16:05:50;5.20;;;4.70;;
32108;SDS011;18624;50.042;8.436;2022-10-16T16:08:17;5.43;;;4.90;;
32108;SDS011;18624;50.042;8.436;2022-10-16T16:10:43;5.82;;;4.82;;
32108;SDS011;18624;50.042;8.436;2022-10-16T16:13:10;4.10;;;3.72;;
32108;SDS011;18624;50.042;8.436;2022-10-16T16:15:40;5.80;;;4.40;;
32108;SDS011;18624;50.042;8.436;2022-10-16T16:18:06;4.60;;;4.15;;
32108;SDS011;18624;50.042;8.436;2022-10-16T16:20:35;3.58;;;3.28;;
32108;SDS011;18624;50.042;8.436;2022-10-16T16:23:02;4.45;;;3.92;;
32108;SDS011;18624;50.042;8.436;2022-10-16T16:25:28;3.92;;;3.42;;
32108;SDS011;18624;50.042;8.436;2022-10-16T16:27:55;3.67;;;3.38;;
32108;SDS011;18624;50.042;8.436;2022-10-16T16:30:21;3.45;;;3.20;;
32108;SDS011;18624;50.042;8.436;2022-10-16T16:32:53;3.80;;;3.50;;
32108;SDS011;18624;50.042;8.436;2022-10-16T16:35:19;3.47;;;3.17;;
32108;SDS011;18624;50.042;8.436;2022-10-16T16:37:46;3.30;;;3.00;;